Terminal Aerodrome Forecast
Issued by NWS Duluth, MN

Home | Current Version | Previous Version | Text Only | Print | Product List | Glossary On
Versions: 1 2 3 4 5 6 7 8 9 10 11 12 13 14
000
FTUS43 KDLH 022300
TAFDLH
TAF
KDLH 022337Z 0300/0324 16008KT P6SM FEW080
     FM030600 VRB03KT P6SM SCT150 WS015/22040KT
     FM031400 21009KT P6SM VCSH SCT120
     FM031800 26010G24KT 5SM -SHRA VCTS BKN050CB
     FM032100 30014G27KT P6SM SCT100=

USA.gov is the U.S. government's official web portal to all federal, state and local government web resources and services.